Aeroporto :
LOGIN :

Iscrizione | Disclaimer

   EN    FR    IT 

 










Sommario :    VFR   VFR Marginale   IFR   IFR Intensivo   IFR Molto Intensivo
Visibilità : 
Base nubi : 
>= 8 km
>= 3000ft
5 / 8 km
1000 / 3000 ft
1500m / 5 km
500 / 1000 ft
800 / 1500m
200 / 500 ft
< 800m
< 200 ft
Simboli :   Temporali  Nebbia  Neve Forte  Precipitazioni Forti  Vento > 20 kt
SIGMETs :   Varie  Temporali  Ghiacco  Turbolenza  Onda orograficha  Ceneri Vulcaniche






- Altitudine del aeroporto : 503 ft
- Codice IATA : BLE


ESSD - Borlange

ULTIMO METAR :
  • 252350Z AUTO 25003KT 9999 OVC084/// 08/06 Q1006

METARs OBSOLETI :
  • 252320Z AUTO VRB02KT 9999 FEW018/// BKN090/// OVC130/// 08/06 Q1006
  • 252250Z AUTO 24007KT 9999 BKN061/// BKN090/// OVC140/// 08/06 Q1005
  • 252220Z AUTO 25007KT 9999 SCT049/// OVC084/// 08/06 Q1006
  • 252150Z AUTO 24007KT 9999 OVC046/// 09/07 Q1006
  • 252120Z AUTO 24009KT 9999 FEW014/// BKN030/// OVC048/// 09/07 Q1005

Previsioni scadute.



MetMap, La meteo Aeronautica in un colpo d'occhio ! - Copyright ORBIFLY Dicembre 2007 - Disclaimer

ORBIFLY MET'MAP TEAM :

Programmazione e sviluppo : Alexandra Zaïnal
Concezione : Baudouin d'Aumeries
Aiuto per la programmazione : Marc-Olivier Méhu
Supporto tecnico e logistico : Manuel Goepfert
Aiuto per la traduzione : Arnaldo La Scala

Contatto : metmap@orbifly.com




FONTI E CREDITI :

   NOAA